Estación Meteorológica Peña el Pijo (Robertgarden) [ 01/30/23 13:53:55 CET ]

Fecha Hora Presion(HPa) Temp (°C) Humedad % Rocio (°C) Viento ( m/s) Direccion Lluvia 1Hora(mm) Lluvia 24H(mm) LLuvia Total(mm)
2010-Sep-15 01:01:14 1018.500 13.7 68 7.9         156.43
2010-Sep-15 02:01:13 1018.300 13.2 69 7.7         156.43
2010-Sep-15 03:01:15 1018.000 12.4 69 6.9         156.43
2010-Sep-15 04:01:15 1017.500 11.6 70 6.3         156.43
2010-Sep-15 05:01:16 1017.400 11.0 70 5.8         156.43
2010-Sep-15 06:01:15 1017.100 10.2 72 5.4         156.43
2010-Sep-15 07:01:15 1017.000 9.7 74 5.3         156.43
2010-Sep-15 08:01:16 1017.400 9.6 73 5.0         156.43
2010-Sep-15 09:01:15 1017.100 11.2 72 6.4         156.43
2010-Sep-15 10:01:15 1017.000 20.7 55 11.3         156.43
2010-Sep-15 11:01:15 1016.900 26.8 40 12.1         156.43
2010-Sep-15 12:01:18 1016.500 30.6 28 10.2         156.43
2010-Sep-15 13:01:17 1016.000 35.1 20 8.8         156.43
2010-Sep-15 14:01:17 1015.500 35.9 17 6.5         156.43
2010-Sep-15 15:01:17 1014.900 35.7 18 7.3         156.43
2010-Sep-15 16:01:16 1014.000 35.5 15 4.2         156.43
2010-Sep-15 17:01:28 1013.300 35.5 15 4.2         156.43
2010-Sep-15 18:01:35 1013.300 32.6 25 9.8         156.43
2010-Sep-15 19:01:29 1013.300 28.4 34 10.9         156.43
2010-Sep-15 20:01:26 1013.400 25.9 41 11.7         156.43
2010-Sep-15 21:01:15 1013.800 23.4 50 12.4         156.43
2010-Sep-15 22:01:18 1014.600 20.2 56 11.1         156.43
2010-Sep-15 23:01:17 1014.600 17.7 64 10.8         156.43

Temperatura Máxima:35°    Temperatura Mínima:
Presión Máxima:1018.500 Hpa    Presión Mínima:1013.300 Hpa


Volver